XQU weather

Qualicum Beach Airport
Qualicum Beach, British Columbia, Canada

Public forecast

Using degrees Celsius for public forecast. Weather courtesy of forecast.io.

METAR (pilot weather report)

Closest report is Nanaimo Airport, 26.6 nm (49.3 km) SE. Retrieved 2019/05/20 18:42 UTC (0 seconds ago):

CYCD 201842Z 05005KT 10SM BKN007 OVC016 14/13 A2972 RMK SF6SC2 CIG RAG SLP064 DENSITY ALT 300FT

TAF (pilot weather forecast)

Closest forecast is Nanaimo Airport, 26.6 nm (49.3 km) SE. Retrieved 2019/05/20 18:00 UTC (37 minutes ago):

TAF CYCD 201739Z 2018/2104 VRB03KT P6SM FEW005 SCT015 BKN040 TEMPO 2018/2020 6SM -SHRA BR BKN005 OVC015 FM202000 13005KT P6SM -SHRA SCT025 BKN050 TEMPO 2020/2104 5SM -SHRA BR BKN020 OVC040 RMK NXT FCST BY 210000Z